Time;durP1;ratioP1;P1;durP2;ratioP2;P2;SDS_P1;SDS_P2;PMS_P1;PMS_P2;Temp;Humidity;BMP_temperature;BMP_pressure;BME280_temperature;BME280_humidity;BME280_pressure;Samples;Min_cycle;Max_cycle;Signal;HPM_P1;HPM_P2
2021/10/24 00:01:20;;;;;;;15.13;13.20;;;2.80;99.90;;;3.55;85.63;99041.28;5212480;28;20230;-60
2021/10/24 00:03:53;;;;;;;15.23;13.63;;;2.70;99.90;;;3.54;85.74;99035.28;5223556;28;20289;-60
2021/10/24 00:06:26;;;;;;;13.37;12.17;;;2.70;99.90;;;3.52;86.21;99036.78;5223192;28;20251;-59
2021/10/24 00:08:59;;;;;;;13.80;12.40;;;2.70;99.90;;;3.49;86.09;99041.53;5224840;28;20225;-60
2021/10/24 00:11:32;;;;;;;13.20;11.80;;;2.70;99.90;;;3.52;86.29;99036.78;5224497;28;20258;-60
2021/10/24 00:14:07;;;;;;;12.23;11.13;;;2.70;99.90;;;3.53;85.98;99030.97;5223792;28;20301;-59
2021/10/24 00:16:41;;;;;;;13.40;12.10;;;2.80;99.90;;;3.51;86.46;99040.03;5223156;28;20223;-60
2021/10/24 00:19:15;;;;;;;11.40;10.40;;;2.80;99.90;;;3.49;86.61;99030.50;5223632;28;20203;-59
2021/10/24 00:21:48;;;;;;;11.93;9.53;;;2.80;99.90;;;3.49;86.65;99033.03;5217746;28;20551;-59
2021/10/24 00:24:21;;;;;;;15.27;12.50;;;2.70;99.90;;;3.45;86.72;99024.25;5218322;28;20195;-59
2021/10/24 00:26:54;;;;;;;15.70;13.10;;;2.70;99.90;;;3.44;85.80;99037.63;5224078;28;20314;-60
2021/10/24 00:29:27;;;;;;;13.00;11.33;;;2.60;99.90;;;3.39;86.55;99019.44;5223432;28;20294;-60
2021/10/24 00:32:02;;;;;;;12.17;10.97;;;2.70;99.90;;;3.38;86.90;99017.66;5222853;28;20728;-59
2021/10/24 00:34:35;;;;;;;11.47;10.37;;;2.70;99.90;;;3.44;87.23;99027.50;5223361;28;20219;-59
2021/10/24 00:37:08;;;;;;;13.80;12.33;;;2.70;99.90;;;3.41;87.22;99027.19;5221384;28;20204;-59
2021/10/24 00:39:41;;;;;;;13.73;12.43;;;2.70;99.90;;;3.47;86.90;99022.78;5219762;28;20203;-60
2021/10/24 00:42:14;;;;;;;13.30;11.80;;;2.70;99.90;;;3.37;87.61;99017.50;5224020;28;20201;-61
2021/10/24 00:44:47;;;;;;;13.37;11.97;;;2.70;99.90;;;3.39;85.87;99013.50;5222878;28;20766;-60
2021/10/24 00:47:22;;;;;;;14.57;12.00;;;2.60;99.90;;;3.35;86.09;99013.94;5222836;28;20677;-61
2021/10/24 00:49:55;;;;;;;12.20;11.00;;;2.60;99.90;;;3.32;86.59;99016.13;5222882;28;20211;-60
2021/10/24 00:52:29;;;;;;;12.23;11.03;;;2.60;99.90;;;3.28;86.40;99011.50;5224871;28;20203;-60
2021/10/24 00:55:04;;;;;;;11.10;10.10;;;2.50;99.90;;;3.31;87.33;99015.22;5224520;28;20373;-59
2021/10/24 00:57:43;;;;;;;11.07;9.97;;;2.60;99.90;;;3.35;87.08;99011.41;5223297;28;20646;-61
2021/10/24 01:00:16;;;;;;;12.73;10.97;;;2.60;99.90;;;3.38;86.72;99011.72;5222956;28;20195;-60
2021/10/24 01:02:51;;;;;;;13.00;11.67;;;2.50;99.90;;;3.33;85.90;99005.28;5222341;28;20203;-62
2021/10/24 01:05:24;;;;;;;11.70;10.50;;;2.50;99.90;;;3.30;85.38;99004.97;5220639;28;20226;-62
2021/10/24 01:07:58;;;;;;;12.20;10.90;;;2.50;99.90;;;3.34;84.63;98999.50;5222995;28;20290;-59
2021/10/24 01:10:32;;;;;;;11.67;10.50;;;2.30;99.90;;;3.15;87.01;99007.72;5220483;28;20289;-61
2021/10/24 01:13:05;;;;;;;11.90;10.80;;;2.30;99.90;;;3.02;86.96;98994.53;5224121;28;20638;-61
2021/10/24 01:15:39;;;;;;;10.97;9.87;;;2.20;99.90;;;2.96;86.57;98993.91;5222380;28;20213;-62
2021/10/24 01:18:14;;;;;;;11.63;10.50;;;2.20;99.90;;;2.97;86.95;98985.56;5220486;28;20203;-62
2021/10/24 01:20:51;;;;;;;10.67;9.67;;;2.20;99.90;;;2.97;86.93;98985.56;5222491;28;20202;-61
2021/10/24 01:23:24;;;;;;;10.17;9.10;;;2.20;99.90;;;3.02;87.54;98979.38;5222162;28;20203;-62
2021/10/24 01:25:57;;;;;;;10.77;9.70;;;2.30;99.90;;;2.97;87.86;98978.00;5224775;28;20225;-62
2021/10/24 01:28:30;;;;;;;11.27;10.27;;;2.30;99.90;;;2.94;88.38;98971.00;5225836;28;20202;-62
2021/10/24 01:31:04;;;;;;;10.70;9.70;;;2.20;99.90;;;3.00;87.73;98972.38;5226997;28;20194;-62
2021/10/24 01:33:37;;;;;;;10.40;9.50;;;2.30;99.90;;;2.99;88.44;98963.91;5222185;28;20293;-61
2021/10/24 01:36:13;;;;;;;10.20;9.20;;;2.30;99.90;;;2.93;88.89;98963.28;5223972;28;20227;-61
2021/10/24 01:38:49;;;;;;;10.53;9.43;;;2.30;99.90;;;2.97;88.84;98960.31;5225666;28;20213;-61
2021/10/24 01:41:25;;;;;;;9.07;8.37;;;2.30;99.90;;;3.06;88.76;98955.34;5224946;28;20230;-61
2021/10/24 01:43:58;;;;;;;10.20;9.30;;;2.30;99.90;;;3.00;87.75;98950.53;5226403;28;20730;-61
2021/10/24 01:46:31;;;;;;;10.07;9.20;;;2.30;99.90;;;2.97;87.13;98955.28;5226995;28;20231;-60
2021/10/24 01:49:04;;;;;;;10.23;9.33;;;2.20;99.90;;;2.91;87.62;98954.63;5227712;28;20206;-61
2021/10/24 01:51:39;;;;;;;9.87;9.00;;;2.10;99.90;;;2.88;86.41;98944.22;5227522;28;20286;-62
2021/10/24 01:54:12;;;;;;;9.47;8.70;;;2.00;99.90;;;2.82;85.92;98948.63;5224763;28;20303;-65
2021/10/24 01:56:45;;;;;;;10.43;9.43;;;2.00;99.90;;;2.84;86.19;98942.13;5223819;28;20303;-62
2021/10/24 01:59:18;;;;;;;10.50;8.87;;;2.00;99.90;;;2.79;86.49;98940.75;5227665;28;20193;-56
2021/10/24 02:01:51;;;;;;;9.97;9.07;;;2.00;99.90;;;2.70;86.63;98933.13;5226538;28;20638;-60
2021/10/24 02:04:24;;;;;;;10.30;9.27;;;1.90;99.90;;;2.62;87.19;98928.88;5223844;28;20232;-59
2021/10/24 02:06:59;;;;;;;9.57;8.77;;;1.90;99.90;;;2.55;87.56;98937.44;5227147;28;20214;-62
2021/10/24 02:09:32;;;;;;;9.27;8.43;;;1.90;99.90;;;2.38;87.84;98922.16;5227455;28;20206;-59
2021/10/24 02:12:06;;;;;;;9.37;8.40;;;1.70;99.90;;;2.28;87.55;98932.91;5223064;28;20289;-59
2021/10/24 02:14:39;;;;;;;10.50;8.97;;;1.50;99.90;;;2.22;88.16;98920.53;5227726;28;20218;-59
2021/10/24 02:17:12;;;;;;;10.70;9.60;;;1.50;99.90;;;2.28;89.40;98924.44;5223974;28;20204;-60
2021/10/24 02:19:45;;;;;;;10.50;9.50;;;1.60;99.90;;;2.34;89.05;98920.94;5224987;28;20572;-60
2021/10/24 02:22:20;;;;;;;9.77;8.97;;;1.60;99.90;;;2.35;88.08;98912.66;5226628;28;20292;-64
2021/10/24 02:24:53;;;;;;;9.30;8.43;;;1.60;99.90;;;2.32;88.53;98907.28;5224509;28;20315;-59
2021/10/24 02:27:27;;;;;;;9.13;8.23;;;1.60;99.90;;;2.35;87.07;98909.25;5220347;28;20334;-62
2021/10/24 02:30:00;;;;;;;8.77;7.93;;;1.60;99.90;;;2.37;86.11;98911.16;5226671;28;20202;-59
2021/10/24 02:32:33;;;;;;;8.63;7.93;;;1.40;99.90;;;2.23;86.25;98902.16;5221118;28;20193;-64
2021/10/24 02:35:07;;;;;;;9.17;8.37;;;1.40;99.90;;;2.23;87.79;98907.22;5221558;28;20696;-59
2021/10/24 02:37:44;;;;;;;8.63;7.90;;;1.50;99.90;;;2.21;87.73;98903.63;5219432;28;20193;-59
2021/10/24 02:40:17;;;;;;;9.33;8.37;;;1.50;99.90;;;2.25;88.01;98907.34;5227926;28;20197;-61
2021/10/24 02:42:51;;;;;;;8.33;7.63;;;1.50;99.90;;;2.23;87.44;98909.72;5226579;28;20193;-59
2021/10/24 02:45:24;;;;;;;9.67;8.73;;;1.50;99.90;;;2.25;88.01;98900.69;5221556;28;20595;-62
2021/10/24 02:47:57;;;;;;;8.70;7.77;;;1.60;99.90;;;2.25;88.36;98895.63;5224071;28;20247;-59
2021/10/24 02:50:30;;;;;;;7.80;7.10;;;1.50;99.90;;;2.27;87.78;98902.47;5219065;28;20204;-62
2021/10/24 02:53:04;;;;;;;8.77;8.07;;;1.60;99.90;;;2.30;88.33;98893.59;5225915;28;20223;-58
2021/10/24 02:55:37;;;;;;;8.97;8.17;;;1.60;99.90;;;2.35;88.31;98892.47;5226923;28;20628;-57
2021/10/24 02:58:10;;;;;;;8.57;7.87;;;1.60;99.90;;;2.33;87.77;98893.94;5218761;28;20261;-64
2021/10/24 03:00:43;;;;;;;8.77;7.97;;;1.60;99.90;;;2.37;88.40;98890.09;5225117;28;20205;-58
2021/10/24 03:03:17;;;;;;;8.90;8.07;;;1.60;99.90;;;2.33;88.47;98893.03;5226689;28;20194;-61
2021/10/24 03:05:50;;;;;;;8.27;7.57;;;1.60;99.90;;;2.33;88.14;98893.03;5227591;28;20304;-60
2021/10/24 03:08:24;;;;;;;8.40;7.60;;;1.50;99.90;;;2.31;87.81;98895.38;5225638;28;20312;-62
2021/10/24 03:10:57;;;;;;;7.93;7.23;;;1.50;99.90;;;2.28;87.31;98882.44;5222941;28;20196;-61
2021/10/24 03:13:30;;;;;;;8.57;7.80;;;1.50;99.90;;;2.24;87.62;98886.28;5225549;28;20207;-59
2021/10/24 03:16:05;;;;;;;8.33;7.57;;;1.40;99.90;;;2.21;87.61;98880.94;5225763;28;20213;-61
2021/10/24 03:18:38;;;;;;;7.33;6.70;;;1.50;99.90;;;2.21;88.02;98883.44;5222636;28;20284;-60
2021/10/24 03:21:11;;;;;;;8.50;7.30;;;1.50;99.90;;;2.27;87.56;98887.34;5222531;28;20200;-59
2021/10/24 03:23:45;;;;;;;7.97;7.17;;;1.50;99.90;;;2.25;87.70;98877.97;5218029;28;20198;-63
2021/10/24 03:26:19;;;;;;;7.63;6.90;;;1.50;99.90;;;2.18;87.57;98878.09;5222836;28;20225;-61
2021/10/24 03:28:52;;;;;;;7.87;7.20;;;1.50;99.90;;;2.18;88.25;98888.16;5226295;28;20220;-64
2021/10/24 03:31:25;;;;;;;6.97;6.40;;;1.50;99.90;;;2.19;87.63;98889.06;5223279;28;20292;-58
2021/10/24 03:33:58;;;;;;;7.37;6.67;;;1.50;99.90;;;2.16;87.94;98883.69;5220884;28;20228;-57
2021/10/24 03:36:31;;;;;;;8.07;7.27;;;1.50;99.90;;;2.17;88.64;98888.88;5222525;28;20222;-57
2021/10/24 03:39:06;;;;;;;7.40;6.80;;;1.50;99.90;;;2.19;88.60;98889.06;5226932;28;20744;-59
2021/10/24 03:41:39;;;;;;;7.70;7.00;;;1.50;99.90;;;2.15;87.88;98892.88;5225711;28;20202;-58
2021/10/24 03:44:12;;;;;;;7.33;6.73;;;1.40;99.90;;;2.16;88.35;98894.66;5217937;28;20299;-62
2021/10/24 03:46:45;;;;;;;7.57;6.83;;;1.50;99.90;;;2.17;87.73;98888.88;5222858;28;20302;-64
2021/10/24 03:49:18;;;;;;;7.90;6.50;;;1.40;99.90;;;2.16;87.58;98894.66;5223476;28;20201;-59
2021/10/24 03:51:51;;;;;;;7.90;7.07;;;1.40;99.90;;;2.19;87.47;98900.03;5227543;28;20680;-57
2021/10/24 03:54:27;;;;;;;8.77;7.20;;;1.40;99.90;;;2.15;87.67;98905.50;5215054;28;20300;-59
2021/10/24 03:57:00;;;;;;;6.87;6.27;;;1.40;99.90;;;2.11;87.36;98893.28;5219986;28;20308;-61
2021/10/24 03:59:33;;;;;;;6.83;5.90;;;1.40;99.90;;;2.14;87.16;98896.13;5223380;28;20199;-62
2021/10/24 04:02:06;;;;;;;7.13;6.60;;;1.30;99.90;;;2.14;87.27;98906.22;5222270;28;20205;-63
2021/10/24 04:04:41;;;;;;;6.90;6.23;;;1.30;99.90;;;2.11;87.75;98899.94;5224997;28;20223;-62
2021/10/24 04:07:14;;;;;;;6.90;6.40;;;1.40;99.90;;;2.05;87.34;98907.75;5217774;28;20313;-62
2021/10/24 04:09:49;;;;;;;7.50;6.67;;;1.40;99.90;;;2.10;87.38;98903.22;5222330;28;20677;-60
2021/10/24 04:12:22;;;;;;;6.63;6.07;;;1.30;99.90;;;2.05;87.30;98905.25;5224198;28;20638;-64
2021/10/24 04:14:55;;;;;;;7.17;6.33;;;1.30;99.90;;;2.03;87.95;98906.69;5224423;28;20311;-64
2021/10/24 04:17:28;;;;;;;6.90;6.07;;;1.30;99.90;;;2.01;87.92;98903.13;5223899;28;20227;-63
2021/10/24 04:20:01;;;;;;;6.63;5.67;;;1.30;99.90;;;2.06;87.31;98906.13;5222159;28;20284;-60
2021/10/24 04:22:34;;;;;;;6.90;6.30;;;1.30;99.90;;;2.09;87.38;98902.31;5214431;28;20193;-61
2021/10/24 04:25:11;;;;;;;6.73;6.13;;;1.30;99.90;;;2.08;87.27;98900.53;5224490;28;20574;-60
2021/10/24 04:27:44;;;;;;;5.80;5.30;;;1.30;99.90;;;2.04;87.21;98908.50;5225191;28;20254;-62
2021/10/24 04:30:18;;;;;;;6.23;5.63;;;1.30;99.90;;;1.98;87.07;98905.34;5223063;28;20198;-61
2021/10/24 04:32:51;;;;;;;5.87;5.37;;;1.30;99.90;;;2.02;86.80;98895.72;5225078;28;20204;-61
2021/10/24 04:35:24;;;;;;;5.77;5.37;;;1.20;99.90;;;2.02;87.42;98894.81;5223421;28;20779;-59
2021/10/24 04:37:57;;;;;;;6.83;6.27;;;1.20;99.90;;;2.05;86.61;98905.25;5220085;28;20630;-63
2021/10/24 04:40:31;;;;;;;6.20;5.60;;;1.20;99.90;;;1.93;86.75;98899.78;5224910;28;20284;-61
2021/10/24 04:43:04;;;;;;;6.70;5.80;;;1.20;99.90;;;1.93;87.13;98903.94;5222272;28;20200;-61
2021/10/24 04:45:38;;;;;;;5.93;5.47;;;1.20;99.90;;;1.91;86.94;98907.91;5219783;28;20217;-63
2021/10/24 04:48:11;;;;;;;5.80;5.40;;;1.10;99.90;;;1.88;87.08;98900.03;5219079;28;20216;-60
2021/10/24 04:50:46;;;;;;;6.20;5.70;;;1.10;99.90;;;1.88;87.59;98894.97;5223888;28;20573;-62
2021/10/24 04:53:20;;;;;;;6.47;5.87;;;1.10;99.90;;;1.86;88.03;98899.88;5219358;28;20296;-61
2021/10/24 04:55:57;;;;;;;6.50;6.00;;;1.20;99.90;;;1.85;88.01;98912.31;5221078;28;20256;-64
2021/10/24 04:58:30;;;;;;;6.63;6.10;;;1.10;99.90;;;1.87;87.70;98895.72;5222952;28;20243;-62
2021/10/24 05:01:04;;;;;;;5.57;5.07;;;1.10;99.90;;;1.88;87.60;98900.03;5221512;28;20203;-61
2021/10/24 05:03:38;;;;;;;7.93;5.80;;;1.20;99.90;;;1.87;87.70;98898.25;5220271;28;20199;-62
2021/10/24 05:06:11;;;;;;;6.30;5.70;;;1.10;99.90;;;1.91;86.54;98897.81;5217441;28;20308;-62
2021/10/24 05:08:44;;;;;;;5.93;5.23;;;1.20;99.90;;;1.87;87.09;98903.28;5222491;28;20323;-62
2021/10/24 05:11:19;;;;;;;6.73;6.13;;;1.20;99.90;;;1.89;87.48;98896.75;5221906;28;20252;-61
2021/10/24 05:13:52;;;;;;;5.67;5.20;;;1.20;99.90;;;1.92;87.35;98897.13;5223769;28;20630;-62
2021/10/24 05:16:25;;;;;;;6.13;5.60;;;1.20;99.90;;;1.93;87.49;98891.34;5224369;28;20217;-62
2021/10/24 05:18:58;;;;;;;6.33;5.83;;;1.10;99.90;;;1.92;87.84;98892.06;5222739;28;20220;-63
2021/10/24 05:21:31;;;;;;;7.03;5.57;;;1.20;99.90;;;1.94;87.34;98895.63;5222795;28;20194;-57
2021/10/24 05:24:06;;;;;;;8.13;6.27;;;1.20;99.90;;;1.95;87.16;98897.44;5224012;28;20203;-62
2021/10/24 05:26:41;;;;;;;6.60;6.10;;;1.20;99.90;;;1.82;86.68;98884.25;5224764;28;20236;-62
2021/10/24 05:29:14;;;;;;;6.63;6.13;;;1.10;99.90;;;1.86;88.33;98882.22;5221680;28;20304;-58
2021/10/24 05:31:47;;;;;;;6.00;5.50;;;1.20;99.90;;;1.91;88.01;98880.19;5216666;28;20221;-62
2021/10/24 05:34:20;;;;;;;5.97;5.50;;;1.20;99.90;;;1.91;88.47;98888.63;5224128;28;20198;-64
2021/10/24 05:36:53;;;;;;;6.13;5.47;;;1.20;99.90;;;1.86;87.68;98884.75;5218578;28;20208;-62
2021/10/24 05:39:26;;;;;;;5.80;5.17;;;1.10;99.90;;;1.86;87.48;98874.69;5224147;28;20199;-62
2021/10/24 05:42:03;;;;;;;6.30;5.03;;;1.10;99.90;;;1.77;87.37;98877.09;5221614;28;20229;-62
2021/10/24 05:44:36;;;;;;;5.60;5.10;;;1.00;99.90;;;1.74;87.89;98871.72;5219123;28;20780;-62
2021/10/24 05:47:09;;;;;;;6.10;5.60;;;1.00;99.90;;;1.76;88.45;98871.88;5220393;28;20964;-61
2021/10/24 05:49:42;;;;;;;5.50;4.83;;;1.00;99.90;;;1.78;87.91;98868.81;5223115;28;20212;-62
2021/10/24 05:52:16;;;;;;;5.30;4.90;;;1.10;99.90;;;1.78;88.19;98866.28;5220116;28;20578;-59
2021/10/24 05:54:49;;;;;;;5.73;5.23;;;1.10;99.90;;;1.75;88.16;98863.44;5222986;28;20308;-62
2021/10/24 05:57:23;;;;;;;5.50;5.10;;;1.10;99.90;;;1.84;87.77;98866.03;5219842;28;20204;-61
2021/10/24 05:59:56;;;;;;;5.50;5.03;;;1.10;99.90;;;1.83;87.93;98863.34;5221429;28;20567;-62
2021/10/24 06:02:29;;;;;;;5.43;5.03;;;1.10;99.90;;;1.87;87.24;98865.47;5222107;28;20310;-62
2021/10/24 06:05:03;;;;;;;5.37;5.07;;;1.20;99.90;;;1.86;87.84;98872.16;5217535;28;20222;-60
2021/10/24 06:07:36;;;;;;;5.73;4.97;;;1.20;99.90;;;1.93;88.16;98863.59;5219723;28;20205;-62
2021/10/24 06:10:14;;;;;;;5.60;5.10;;;1.20;99.90;;;1.92;87.33;98862.72;5220222;28;20312;-62
2021/10/24 06:12:52;;;;;;;5.67;5.17;;;1.10;99.90;;;1.96;87.50;98868.97;5220958;28;20205;-62
2021/10/24 06:15:25;;;;;;;5.20;4.80;;;1.20;99.90;;;1.99;87.07;98860.09;5224826;28;20245;-60
2021/10/24 06:17:58;;;;;;;5.33;4.80;;;1.20;99.90;;;1.97;87.45;98859.03;5226401;28;20292;-63
2021/10/24 06:20:31;;;;;;;6.37;5.87;;;1.20;99.90;;;1.97;87.11;98863.19;5223311;28;20195;-58
2021/10/24 06:23:04;;;;;;;7.63;7.03;;;1.30;99.90;;;2.02;86.86;98869.63;5218983;28;20202;-61
2021/10/24 06:25:39;;;;;;;10.37;8.47;;;1.30;99.90;;;2.05;87.17;98869.94;5225152;28;20674;-61
2021/10/24 06:28:16;;;;;;;7.93;7.23;;;1.30;99.90;;;2.20;87.27;98870.66;5223220;28;20655;-59
2021/10/24 06:30:49;;;;;;;7.27;5.87;;;1.40;99.90;;;2.30;87.00;98875.06;5222698;28;20296;-59
2021/10/24 06:33:22;;;;;;;6.10;5.70;;;1.50;99.90;;;2.43;86.89;98871.47;5222836;28;20194;-61
2021/10/24 06:35:55;;;;;;;6.23;5.83;;;1.70;99.90;;;2.70;86.78;98873.44;5224253;28;20251;-61
2021/10/24 06:38:28;;;;;;;6.83;5.77;;;1.90;99.90;;;3.03;85.08;98877.63;5218131;28;20551;-64
2021/10/24 06:41:01;;;;;;;5.37;4.87;;;2.20;99.90;;;3.19;84.82;98877.56;5222562;28;20640;-63
2021/10/24 06:43:36;;;;;;;7.97;7.37;;;2.40;99.90;;;3.51;83.82;98872.34;5224673;28;20293;-60
2021/10/24 06:46:10;;;;;;;8.87;7.97;;;2.60;99.90;;;3.81;82.90;98874.53;5220592;28;20696;-63
2021/10/24 06:48:43;;;;;;;7.37;6.77;;;2.80;99.90;;;4.02;81.78;98865.63;5219962;28;20658;-58
2021/10/24 06:51:17;;;;;;;6.27;5.67;;;3.10;99.90;;;4.16;81.55;98880.53;5222531;28;20199;-62
2021/10/24 06:53:50;;;;;;;7.40;5.53;;;3.30;99.90;;;4.27;80.58;98876.53;5226232;28;20227;-62
2021/10/24 06:56:23;;;;;;;5.77;5.27;;;3.40;99.90;;;4.53;79.50;98878.16;5224036;28;20316;-61
2021/10/24 06:58:57;;;;;;;5.50;5.07;;;3.50;99.90;;;4.70;79.00;98873.97;5225720;28;20209;-61
2021/10/24 07:01:30;;;;;;;6.00;5.53;;;3.80;99.90;;;4.84;79.24;98871.88;5226309;28;20209;-62
2021/10/24 07:04:06;;;;;;;6.20;5.70;;;4.00;99.90;;;4.91;78.67;98874.22;5222222;28;20196;-59
2021/10/24 07:06:39;;;;;;;6.17;5.67;;;4.10;99.90;;;5.10;78.07;98865.09;5224795;28;20229;-59
2021/10/24 07:09:12;;;;;;;8.53;7.83;;;4.30;99.90;;;5.30;77.75;98866.97;5222082;28;20318;-59
2021/10/24 07:12:06;;;;;;;13.87;12.43;;;4.40;99.90;;;5.60;76.40;98868.00;5225256;28;20204;-61
2021/10/24 07:14:40;;;;;;;20.60;15.93;;;4.60;99.90;;;5.69;75.77;98873.94;5225815;28;20245;-61
2021/10/24 07:17:14;;;;;;;12.07;10.80;;;4.70;99.90;;;5.62;75.28;98879.19;5225298;28;20223;-60
2021/10/24 07:19:47;;;;;;;10.60;9.10;;;4.80;99.90;;;5.71;76.43;98871.56;5225692;28;20675;-64
2021/10/24 07:22:20;;;;;;;9.60;8.40;;;4.70;99.90;;;6.05;75.11;98868.84;5224071;28;20221;-62
2021/10/24 07:24:53;;;;;;;8.37;7.57;;;5.10;99.90;;;6.22;74.94;98867.81;5225070;28;20223;-61
2021/10/24 07:27:26;;;;;;;8.57;7.77;;;5.30;99.90;;;6.40;74.15;98871.09;5220460;28;20197;-64
2021/10/24 07:30:00;;;;;;;8.50;7.80;;;5.50;99.90;;;6.59;73.08;98872.75;5221797;28;20213;-58
2021/10/24 07:32:34;;;;;;;7.77;7.17;;;5.60;99.90;;;6.76;72.77;98870.06;5223028;28;20201;-62
2021/10/24 07:35:08;;;;;;;8.00;7.30;;;5.80;99.90;;;6.91;72.31;98867.97;5224818;28;20675;-59
2021/10/24 07:37:43;;;;;;;9.57;8.67;;;6.00;99.90;;;7.02;71.59;98869.78;5224700;28;20203;-57
2021/10/24 07:40:18;;;;;;;9.17;8.30;;;6.10;99.90;;;7.16;71.01;98869.34;5225123;28;20203;-59
2021/10/24 07:42:51;;;;;;;8.57;7.83;;;6.20;99.90;;;7.31;70.84;98872.31;5224010;28;20336;-63
2021/10/24 07:45:25;;;;;;;7.90;7.20;;;6.30;99.90;;;7.37;71.03;98871.94;5223070;28;20227;-59
2021/10/24 07:47:59;;;;;;;8.17;7.37;;;6.40;99.90;;;7.48;70.73;98868.66;5223291;28;20287;-59
2021/10/24 07:50:32;;;;;;;7.80;7.00;;;6.60;99.90;;;7.64;70.56;98860.66;5223740;28;20688;-59
2021/10/24 07:53:05;;;;;;;7.87;7.17;;;6.70;99.90;;;7.88;70.16;98860.19;5223761;28;20248;-62
2021/10/24 07:55:38;;;;;;;7.07;6.57;;;7.00;99.90;;;8.15;69.90;98862.34;5223078;28;20695;-63
2021/10/24 07:58:12;;;;;;;7.30;6.70;;;7.30;99.90;;;8.29;69.29;98855.06;5221372;28;20574;-57
2021/10/24 08:00:46;;;;;;;7.37;6.67;;;7.50;99.90;;;8.46;68.44;98859.03;5223001;28;20288;-58
2021/10/24 08:03:21;;;;;;;7.30;6.60;;;7.50;99.90;;;8.52;67.86;98864.63;5222087;28;21035;-63
2021/10/24 08:05:54;;;;;;;7.87;7.17;;;7.70;99.90;;;8.63;67.44;98856.97;5216559;28;20229;-62
2021/10/24 08:08:27;;;;;;;6.17;5.73;;;7.90;99.90;;;8.74;67.82;98857.06;5220237;28;20287;-62
2021/10/24 08:11:00;;;;;;;5.93;5.13;;;7.90;99.90;;;8.88;66.92;98859.84;5223202;28;20221;-60
2021/10/24 08:13:33;;;;;;;6.80;6.20;;;8.20;99.90;;;8.93;67.88;98854.34;5223308;28;20194;-65
2021/10/24 08:16:08;;;;;;;7.40;6.70;;;8.30;99.90;;;9.16;68.09;98856.16;5219056;28;20317;-62
2021/10/24 08:18:41;;;;;;;7.47;6.50;;;8.50;99.90;;;9.30;68.46;98846.09;5223578;28;20197;-64
2021/10/24 08:21:14;;;;;;;7.37;6.73;;;8.70;99.90;;;9.65;67.90;98851.41;5223278;28;20201;-62
2021/10/24 08:23:48;;;;;;;7.40;6.70;;;9.00;99.90;;;9.70;67.83;98842.44;5223505;28;20283;-64
2021/10/24 08:26:22;;;;;;;6.97;6.47;;;9.10;99.90;;;9.84;66.81;98844.38;5221272;28;20304;-61
2021/10/24 08:28:56;;;;;;;7.43;6.00;;;9.20;99.90;;;10.00;67.34;98850.63;5223218;28;20215;-62
2021/10/24 08:31:30;;;;;;;6.03;5.53;;;9.50;99.90;;;10.11;66.41;98843.00;5222560;28;20316;-58
2021/10/24 08:34:04;;;;;;;6.97;6.10;;;9.50;99.90;;;10.33;65.91;98850.63;5223387;28;20243;-59
2021/10/24 08:36:37;;;;;;;7.07;6.50;;;9.70;99.90;;;10.51;64.61;98852.75;5223396;28;20214;-62
2021/10/24 08:39:11;;;;;;;6.47;5.87;;;9.70;99.90;;;10.55;64.86;98854.75;5221638;28;21208;-64
2021/10/24 08:41:47;;;;;;;6.27;5.77;;;9.90;99.90;;;10.51;67.47;98847.63;5218399;28;20340;-58
2021/10/24 08:44:20;;;;;;;6.30;5.80;;;9.90;99.90;;;10.73;66.54;98840.75;5219882;28;20724;-62
2021/10/24 08:46:54;;;;;;;7.07;5.57;;;10.30;99.90;;;10.85;64.26;98855.22;5222252;28;20296;-59
2021/10/24 08:49:27;;;;;;;6.55;5.95;;;10.40;99.90;;;11.17;63.03;98848.13;5219607;28;20444;-65
2021/10/24 08:52:03;;;;;;;6.50;5.72;;;10.70;99.90;;;11.42;61.19;98843.06;5216349;28;20708;-61
2021/10/24 08:54:36;;;;;;;5.97;5.47;;;11.00;99.90;;;11.66;60.13;98841.31;5220112;28;20712;-63
2021/10/24 08:57:10;;;;;;;5.00;4.60;;;11.30;99.90;;;11.85;59.33;98846.06;5219747;28;20561;-63
2021/10/24 08:59:43;;;;;;;5.63;5.07;;;11.50;99.90;;;12.03;58.69;98836.16;5220404;28;20199;-63
2021/10/24 09:02:17;;;;;;;5.28;4.75;;;11.70;99.90;;;12.24;57.27;98836.69;5222556;28;20287;-65
2021/10/24 09:04:51;;;;;;;5.15;4.75;;;11.80;99.90;;;12.42;57.46;98833.56;5219823;28;20229;-62
2021/10/24 09:07:38;;;;;;;5.93;5.28;;;12.00;99.90;;;12.57;55.39;98832.88;5220010;28;20657;-63
2021/10/24 09:10:11;;;;;;;6.13;5.10;;;12.20;99.80;;;12.68;55.03;98836.16;5217567;28;20240;-63
2021/10/24 09:13:02;;;;;;;5.35;4.63;;;12.30;99.10;;;12.54;53.85;98832.69;5220577;28;20287;-63
2021/10/24 09:15:53;;;;;;;4.70;4.30;;;12.30;98.10;;;12.83;54.07;98836.25;5217412;28;20221;-63
2021/10/24 09:18:34;;;;;;;4.50;4.07;;;12.50;98.80;;;12.96;52.62;98835.34;5217315;28;20204;-62
2021/10/24 09:21:24;;;;;;;4.45;4.00;;;12.60;97.30;;;12.86;51.86;98826.19;5216432;28;20221;-63
2021/10/24 09:24:13;;;;;;;5.00;4.50;;;12.60;96.40;;;12.86;53.27;98823.59;5216403;28;20242;-63
2021/10/24 09:26:46;;;;;;;4.50;4.10;;;12.50;97.70;;;12.81;52.75;98824.97;5221408;28;20833;-65
2021/10/24 09:29:19;;;;;;;4.47;4.13;;;12.40;97.10;;;12.98;51.88;98826.94;5219947;28;20284;-62
2021/10/24 09:31:53;;;;;;;4.50;4.10;;;12.60;96.90;;;12.91;51.54;98824.78;5220967;28;20515;-62
2021/10/24 09:34:28;;;;;;;4.85;3.83;;;12.60;96.30;;;13.04;51.62;98817.06;5220809;28;20224;-64
2021/10/24 09:37:03;;;;;;;4.30;3.90;;;12.70;95.90;;;13.14;51.90;98817.66;5219928;28;20207;-63
2021/10/24 09:39:38;;;;;;;4.85;4.35;;;12.80;96.20;;;13.19;51.70;98821.38;5222584;28;20193;-62
2021/10/24 09:42:17;;;;;;;5.78;4.32;;;12.90;96.70;;;13.39;50.90;98813.28;5219136;28;20197;-63
2021/10/24 09:45:11;;;;;;;5.03;3.72;;;13.10;96.00;;;13.45;51.14;98821.34;5221158;28;20576;-62
2021/10/24 09:47:46;;;;;;;3.58;3.28;;;13.10;95.50;;;13.55;50.55;98815.09;5222893;28;20204;-61
2021/10/24 09:50:33;;;;;;;4.15;3.65;;;13.10;95.60;;;13.61;48.89;98817.13;5227289;28;20563;-62
2021/10/24 09:53:13;;;;;;;4.35;3.97;;;13.10;94.90;;;13.54;48.59;98815.00;5226349;28;20214;-60
2021/10/24 09:55:48;;;;;;;4.22;3.92;;;13.20;94.30;;;13.52;47.79;98800.38;5225240;28;21126;-62
2021/10/24 09:58:23;;;;;;;4.57;4.18;;;13.20;94.20;;;13.51;48.00;98803.75;5221129;28;20220;-63
2021/10/24 10:00:56;;;;;;;5.20;4.00;;;13.20;93.90;;;13.58;47.29;98801.53;5225787;28;20287;-64
2021/10/24 10:03:30;;;;;;;4.85;4.40;;;13.30;93.60;;;13.63;48.98;98800.16;5225297;28;20495;-65
2021/10/24 10:06:04;;;;;;;4.35;3.60;;;13.30;94.10;;;13.61;48.51;98801.72;5222301;28;20228;-60
2021/10/24 10:08:46;;;;;;;3.72;3.42;;;13.30;94.00;;;13.59;49.77;98803.31;5224989;28;20197;-63
2021/10/24 10:11:25;;;;;;;4.10;3.70;;;13.20;94.60;;;13.66;50.03;98795.19;5226062;28;20248;-63
2021/10/24 10:14:03;;;;;;;4.55;4.15;;;13.20;94.80;;;13.96;47.99;98793.53;5223527;28;20204;-63
2021/10/24 10:16:39;;;;;;;5.18;4.78;;;13.50;94.20;;;14.05;46.81;98791.53;5223604;28;20221;-63
2021/10/24 10:19:14;;;;;;;5.05;3.88;;;13.70;93.20;;;13.95;48.38;98796.91;5225542;28;20201;-64
2021/10/24 10:21:48;;;;;;;3.38;3.17;;;13.50;94.10;;;13.91;48.15;98792.41;5222267;28;20193;-61
2021/10/24 10:24:43;;;;;;;4.07;3.78;;;13.50;93.80;;;13.88;48.45;98782.81;5217745;28;20207;-60
2021/10/24 10:27:39;;;;;;;4.00;3.70;;;13.40;93.50;;;14.11;47.69;98780.72;5217631;28;20593;-63
2021/10/24 10:30:15;;;;;;;4.00;3.60;;;13.50;94.00;;;14.18;46.56;98790.53;5220059;28;20288;-61
2021/10/24 10:32:51;;;;;;;4.55;4.25;;;13.70;93.00;;;14.30;46.72;98780.94;5224939;28;20209;-62
2021/10/24 10:35:27;;;;;;;6.07;5.57;;;13.80;93.10;;;14.35;46.91;98778.66;5219071;28;20225;-62
2021/10/24 10:38:04;;;;;;;6.50;5.90;;;13.90;93.10;;;14.31;45.82;98775.03;5225046;28;20565;-63
2021/10/24 10:40:40;;;;;;;3.88;3.45;;;13.80;92.50;;;14.55;45.08;98767.84;5224557;28;20228;-63
2021/10/24 10:43:17;;;;;;;4.28;3.38;;;14.00;92.00;;;14.39;45.77;98772.88;5224586;28;20228;-64
2021/10/24 10:45:52;;;;;;;4.00;3.67;;;14.00;91.80;;;14.46;45.48;98766.41;5222840;28;20223;-63
2021/10/24 10:48:36;;;;;;;4.05;3.05;;;14.10;91.60;;;14.48;45.93;98763.13;5221038;28;20196;-63
2021/10/24 10:51:21;;;;;;;4.03;3.72;;;14.00;92.40;;;14.43;46.25;98755.13;5218938;28;20638;-61
2021/10/24 10:54:02;;;;;;;6.22;5.60;;;13.90;92.70;;;14.61;45.29;98754.44;5219980;28;20248;-63
2021/10/24 10:56:56;;;;;;;2.97;2.78;;;14.10;92.00;;;14.56;45.17;98755.84;5220866;28;20225;-64
2021/10/24 10:59:36;;;;;;;3.88;3.53;;;14.10;91.90;;;14.75;45.32;98747.47;5219547;28;20284;-62